Time;durP1;ratioP1;P1;durP2;ratioP2;P2;SDS_P1;SDS_P2;PMS_P1;PMS_P2;Temp;Humidity;BMP_temperature;BMP_pressure;BME280_temperature;BME280_humidity;BME280_pressure;Samples;Min_cycle;Max_cycle;Signal;HPM_P1;HPM_P2
2022/09/13 00:00:56;;;;;;;3.50;1.20;;;18.60;99.90;;;;;;7393189;19;20538;-82
2022/09/13 00:03:22;;;;;;;1.40;1.20;;;18.60;99.90;;;;;;7393338;19;20792;-83
2022/09/13 00:05:48;;;;;;;2.90;1.55;;;18.60;99.90;;;;;;7392967;19;20129;-84
2022/09/13 00:08:15;;;;;;;2.75;1.52;;;18.50;99.90;;;;;;7394239;19;20158;-84
2022/09/13 00:10:42;;;;;;;2.25;1.23;;;18.60;99.90;;;;;;7395338;19;20139;-81
2022/09/13 00:13:10;;;;;;;3.28;1.67;;;18.90;99.90;;;;;;7392594;19;20130;-84
2022/09/13 00:15:40;;;;;;;2.60;1.40;;;18.80;99.90;;;;;;7392191;19;20154;-83
2022/09/13 00:18:06;;;;;;;2.92;1.40;;;18.70;99.90;;;;;;7392337;19;20158;-83
2022/09/13 00:20:32;;;;;;;1.98;1.50;;;18.70;99.90;;;;;;7391798;19;20131;-83
2022/09/13 00:22:57;;;;;;;2.88;1.48;;;18.90;99.90;;;;;;7391172;19;20153;-82
2022/09/13 00:25:23;;;;;;;4.32;1.50;;;18.50;99.90;;;;;;7393027;19;20150;-83
2022/09/13 00:27:49;;;;;;;4.57;2.00;;;18.60;99.90;;;;;;7393815;19;20146;-79
2022/09/13 00:30:15;;;;;;;1.92;1.52;;;18.90;99.90;;;;;;7392662;19;20146;-83
2022/09/13 00:32:40;;;;;;;2.63;1.38;;;18.90;99.90;;;;;;7394310;19;20135;-84
2022/09/13 00:35:07;;;;;;;1.90;1.42;;;18.60;99.90;;;;;;7392671;19;20162;-83
2022/09/13 00:37:33;;;;;;;2.40;1.63;;;18.80;99.90;;;;;;7392016;19;20148;-82
2022/09/13 00:40:00;;;;;;;3.13;1.50;;;18.90;99.90;;;;;;7390329;19;20151;-81
2022/09/13 00:42:27;;;;;;;2.08;1.58;;;18.70;99.90;;;;;;7392736;19;20246;-81
2022/09/13 00:44:59;;;;;;;1.90;1.23;;;18.50;99.90;;;;;;7391907;19;20131;-82
2022/09/13 00:47:40;;;;;;;1.58;1.48;;;18.30;99.90;;;;;;7390816;19;20173;-80
2022/09/13 00:50:39;;;;;;;1.60;1.40;;;18.10;99.90;;;;;;7394064;19;20641;-83
2022/09/13 00:53:13;;;;;;;2.00;1.45;;;17.90;99.90;;;;;;7389949;19;20599;-82
2022/09/13 00:55:45;;;;;;;1.85;1.40;;;17.70;99.90;;;;;;7392682;19;20127;-82
2022/09/13 00:58:21;;;;;;;3.53;1.40;;;17.60;99.90;;;;;;7394211;19;20591;-81
2022/09/13 01:00:48;;;;;;;3.15;1.63;;;17.70;99.90;;;;;;7391534;19;20187;-80
2022/09/13 01:03:16;;;;;;;1.90;1.10;;;18.10;99.90;;;;;;7391437;19;20155;-83
2022/09/13 01:05:47;;;;;;;2.08;1.40;;;17.90;99.90;;;;;;7394568;19;20134;-81
2022/09/13 01:08:21;;;;;;;1.60;1.23;;;18.00;99.90;;;;;;7392483;19;20142;-82
2022/09/13 01:10:49;;;;;;;1.63;1.25;;;18.10;99.90;;;;;;7392972;19;20149;-83
2022/09/13 01:13:18;;;;;;;3.53;1.20;;;18.40;99.90;;;;;;7393609;19;20144;-82
2022/09/13 01:15:45;;;;;;;1.40;1.10;;;18.50;99.90;;;;;;7392330;19;20134;-81
2022/09/13 01:18:12;;;;;;;1.10;0.80;;;18.40;99.90;;;;;;7391549;19;20135;-81
2022/09/13 01:20:58;;;;;;;1.08;0.98;;;18.10;99.90;;;;;;7391636;19;20138;-83
2022/09/13 01:23:47;;;;;;;1.40;1.05;;;17.90;99.90;;;;;;7387715;19;20171;-84
2022/09/13 01:26:13;;;;;;;1.75;1.00;;;17.90;99.90;;;;;;7393392;19;20141;-83
2022/09/13 01:29:03;;;;;;;2.38;0.80;;;18.00;99.90;;;;;;7390136;19;20584;-81
2022/09/13 01:31:38;;;;;;;0.95;0.85;;;18.40;99.90;;;;;;7391620;19;20143;-82
2022/09/13 01:34:14;;;;;;;3.03;1.00;;;18.30;99.90;;;;;;7390621;19;20225;-83
2022/09/13 01:37:10;;;;;;;1.33;1.23;;;18.50;99.90;;;;;;7393445;19;20130;-82
2022/09/13 01:39:47;;;;;;;1.20;1.00;;;18.60;99.90;;;;;;7383914;19;20576;-81
2022/09/13 01:42:57;;;;;;;1.25;1.02;;;18.30;99.90;;;;;;7392126;19;20165;-81
2022/09/13 01:45:29;;;;;;;1.17;1.00;;;18.20;99.90;;;;;;7391697;19;20138;-81
2022/09/13 01:48:02;;;;;;;1.30;0.95;;;18.00;99.90;;;;;;7391557;19;20158;-80
2022/09/13 01:50:51;;;;;;;1.92;0.88;;;17.80;99.90;;;;;;7391278;19;20144;-82
2022/09/13 01:53:39;;;;;;;3.08;1.10;;;17.80;99.90;;;;;;7389232;19;20158;-83
2022/09/13 01:56:32;;;;;;;1.20;1.00;;;17.90;99.90;;;;;;7388757;19;20139;-81
2022/09/13 01:59:18;;;;;;;2.53;1.40;;;17.90;99.90;;;;;;7386602;19;20153;-82
2022/09/13 02:02:00;;;;;;;1.83;1.30;;;17.80;99.90;;;;;;7391979;19;20130;-83
2022/09/13 02:04:43;;;;;;;3.38;1.52;;;18.00;99.90;;;;;;7390920;19;20148;-83
2022/09/13 02:07:33;;;;;;;1.55;1.20;;;17.90;99.90;;;;;;7390942;19;20138;-82
2022/09/13 02:10:09;;;;;;;1.77;1.20;;;17.80;99.90;;;;;;7391185;19;20592;-83
2022/09/13 02:12:39;;;;;;;1.90;1.20;;;17.90;99.90;;;;;;7391074;19;20130;-82
2022/09/13 02:15:39;;;;;;;2.90;1.27;;;17.80;99.90;;;;;;7388904;19;20158;-82
2022/09/13 02:18:12;;;;;;;2.85;1.10;;;17.90;99.90;;;;;;7391297;19;20165;-84
2022/09/13 02:20:43;;;;;;;2.03;1.08;;;17.60;99.90;;;;;;7391522;19;20163;-82
2022/09/13 02:23:22;;;;;;;1.63;1.00;;;17.20;99.90;;;;;;7390585;19;20138;-83
2022/09/13 02:25:51;;;;;;;2.45;1.30;;;17.30;99.90;;;;;;7388284;19;20178;-83
2022/09/13 02:28:22;;;;;;;2.03;1.30;;;17.20;99.90;;;;;;7388603;19;20165;-83
2022/09/13 02:30:52;;;;;;;1.90;1.50;;;16.90;99.90;;;;;;7392086;19;20142;-83
2022/09/13 02:33:20;;;;;;;1.83;1.40;;;17.20;99.90;;;;;;7390477;19;20134;-82
2022/09/13 02:36:05;;;;;;;5.53;1.35;;;17.50;99.90;;;;;;7389919;19;20545;-83
2022/09/13 02:38:54;;;;;;;4.32;1.33;;;17.80;99.90;;;;;;7388144;19;20181;-74
2022/09/13 02:41:56;;;;;;;2.92;1.40;;;18.00;99.90;;;;;;7390498;19;20138;-74
2022/09/13 02:44:26;;;;;;;2.17;1.85;;;17.90;99.90;;;;;;7384113;19;20161;-73
2022/09/13 02:47:22;;;;;;;2.03;1.42;;;18.10;99.90;;;;;;7390927;19;20580;-73
2022/09/13 02:50:11;;;;;;;2.38;1.50;;;18.00;99.90;;;;;;7389936;19;20571;-74
2022/09/13 02:52:49;;;;;;;1.45;1.35;;;17.40;99.90;;;;;;7387425;19;20139;-72
2022/09/13 02:55:17;;;;;;;1.77;1.58;;;17.30;99.90;;;;;;7386945;19;20150;-74
2022/09/13 02:57:50;;;;;;;2.53;1.50;;;17.50;99.90;;;;;;7389731;19;20185;-73
2022/09/13 03:00:16;;;;;;;4.15;1.48;;;17.20;99.90;;;;;;7386086;19;20149;-75
2022/09/13 03:02:44;;;;;;;4.38;1.20;;;17.20;99.90;;;;;;7389447;19;20162;-75
2022/09/13 03:05:10;;;;;;;4.15;1.30;;;17.60;99.90;;;;;;7396079;19;20139;-75
2022/09/13 03:07:36;;;;;;;4.07;1.42;;;17.70;99.90;;;;;;7396318;19;20486;-76
2022/09/13 03:10:06;;;;;;;2.78;1.40;;;17.70;99.90;;;;;;7396452;19;20139;-74
2022/09/13 03:12:53;;;;;;;3.53;1.17;;;17.70;99.90;;;;;;7396396;19;20143;-75
2022/09/13 03:15:53;;;;;;;4.30;1.25;;;17.70;99.90;;;;;;7393089;19;20155;-74
2022/09/13 03:18:47;;;;;;;4.85;1.20;;;17.80;99.90;;;;;;7393751;19;20153;-74
2022/09/13 03:21:45;;;;;;;1.88;1.15;;;18.10;99.90;;;;;;7396332;19;20159;-73
2022/09/13 03:24:25;;;;;;;3.03;1.35;;;18.20;99.90;;;;;;7391347;19;20288;-73
2022/09/13 03:27:05;;;;;;;2.08;1.30;;;18.20;99.90;;;;;;7396988;19;20143;-73
2022/09/13 03:29:38;;;;;;;2.55;1.73;;;18.10;99.90;;;;;;7392450;19;20213;-73
2022/09/13 03:32:25;;;;;;;1.70;1.45;;;18.30;99.90;;;;;;7394916;19;20613;-72
2022/09/13 03:35:17;;;;;;;1.98;1.40;;;18.20;99.90;;;;;;7394767;19;20144;-73
2022/09/13 03:38:11;;;;;;;2.17;1.58;;;18.20;99.90;;;;;;7389802;19;20204;-72
2022/09/13 03:40:56;;;;;;;2.20;1.80;;;18.20;99.90;;;;;;7394977;19;20151;-74
2022/09/13 03:43:44;;;;;;;2.63;1.80;;;18.20;99.90;;;;;;7393759;19;20147;-74
2022/09/13 03:46:16;;;;;;;3.72;2.10;;;18.20;99.90;;;;;;7395992;19;20152;-73
2022/09/13 03:48:43;;;;;;;2.50;1.92;;;18.20;99.90;;;;;;7392495;19;20166;-74
2022/09/13 03:51:10;;;;;;;3.03;1.77;;;18.00;99.90;;;;;;7396730;19;20131;-73
2022/09/13 03:53:47;;;;;;;2.53;1.83;;;17.80;99.90;;;;;;7394619;19;20159;-73
2022/09/13 03:56:18;;;;;;;2.00;1.60;;;17.80;99.90;;;;;;7393285;19;20137;-74
2022/09/13 03:58:48;;;;;;;2.70;1.85;;;17.90;99.90;;;;;;7392150;19;20246;-76
2022/09/13 04:01:22;;;;;;;6.47;1.98;;;17.80;99.90;;;;;;7393675;19;20499;-76
2022/09/13 04:03:48;;;;;;;3.42;1.90;;;17.70;99.90;;;;;;7393450;19;20157;-74
2022/09/13 04:06:14;;;;;;;2.03;1.83;;;17.70;99.90;;;;;;7394578;19;20135;-74
2022/09/13 04:08:40;;;;;;;2.20;1.80;;;17.70;99.90;;;;;;7392285;19;20202;-73
2022/09/13 04:11:06;;;;;;;2.55;1.95;;;17.70;99.90;;;;;;7393121;19;20151;-74
2022/09/13 04:13:32;;;;;;;5.65;1.90;;;17.60;99.90;;;;;;7395075;19;20149;-73
2022/09/13 04:16:02;;;;;;;2.92;1.73;;;17.70;99.90;;;;;;7393760;19;20139;-73
2022/09/13 04:18:29;;;;;;;4.05;1.90;;;17.70;99.90;;;;;;7391090;19;20158;-73
2022/09/13 04:20:56;;;;;;;4.65;1.67;;;17.70;99.90;;;;;;7392235;19;20139;-74
2022/09/13 04:23:23;;;;;;;2.75;1.77;;;17.70;99.90;;;;;;7391541;19;20146;-73
2022/09/13 04:25:50;;;;;;;2.80;1.77;;;17.60;99.90;;;;;;7392839;19;20226;-73
2022/09/13 04:28:17;;;;;;;2.20;2.00;;;17.70;99.90;;;;;;7392882;19;20154;-74
2022/09/13 04:30:44;;;;;;;3.42;2.15;;;17.70;99.90;;;;;;7393458;19;20568;-74
2022/09/13 04:33:10;;;;;;;2.45;2.20;;;17.60;99.90;;;;;;7391655;19;20138;-73
2022/09/13 04:35:38;;;;;;;4.38;2.03;;;17.60;99.90;;;;;;7391930;19;20209;-73
2022/09/13 04:38:04;;;;;;;4.97;1.95;;;17.80;99.90;;;;;;7392847;19;20143;-74
2022/09/13 04:40:30;;;;;;;2.83;1.80;;;17.70;99.90;;;;;;7393642;19;20206;-75
2022/09/13 04:42:56;;;;;;;5.30;2.00;;;17.30;99.90;;;;;;7390497;19;20554;-75
2022/09/13 04:45:22;;;;;;;2.63;2.17;;;17.50;99.90;;;;;;7391879;19;20142;-75
2022/09/13 04:47:54;;;;;;;3.03;2.13;;;17.70;99.90;;;;;;7393327;19;20155;-75
2022/09/13 04:50:20;;;;;;;4.78;2.05;;;17.70;99.90;;;;;;7392474;19;20142;-76
2022/09/13 04:52:46;;;;;;;4.40;2.20;;;17.60;99.90;;;;;;7393476;19;20138;-75
2022/09/13 04:55:13;;;;;;;3.33;2.05;;;17.70;99.90;;;;;;7392607;19;20161;-75
2022/09/13 04:57:39;;;;;;;5.70;1.85;;;17.80;99.90;;;;;;7392829;19;20182;-75
2022/09/13 05:00:07;;;;;;;5.00;2.00;;;17.80;99.90;;;;;;7389798;19;20139;-74
2022/09/13 05:02:32;;;;;;;2.53;1.88;;;17.80;99.90;;;;;;7391612;19;20184;-74
2022/09/13 05:04:58;;;;;;;1.98;1.70;;;17.70;99.90;;;;;;7389791;19;20142;-74
2022/09/13 05:07:24;;;;;;;4.97;2.40;;;17.80;99.90;;;;;;7392021;19;20143;-74
2022/09/13 05:09:50;;;;;;;3.00;2.40;;;17.90;99.90;;;;;;7392706;19;20444;-75
2022/09/13 05:12:15;;;;;;;3.88;2.35;;;17.70;99.90;;;;;;7391449;19;20529;-74
2022/09/13 05:14:41;;;;;;;5.20;2.45;;;17.80;99.90;;;;;;7390866;19;20806;-72
2022/09/13 05:17:07;;;;;;;3.97;2.25;;;17.70;99.90;;;;;;7391837;19;20142;-73
2022/09/13 05:19:34;;;;;;;3.83;2.67;;;17.70;99.90;;;;;;7391906;19;20149;-75
2022/09/13 05:22:01;;;;;;;4.70;2.28;;;17.70;99.90;;;;;;7393265;19;20142;-74
2022/09/13 05:24:26;;;;;;;3.38;2.65;;;17.70;99.90;;;;;;7388807;19;20546;-74
2022/09/13 05:26:53;;;;;;;3.65;2.15;;;17.70;99.90;;;;;;7389863;19;20143;-75
2022/09/13 05:29:19;;;;;;;2.20;1.85;;;17.60;99.90;;;;;;7388008;19;20177;-75
2022/09/13 05:31:44;;;;;;;2.95;2.20;;;17.70;99.90;;;;;;7387084;19;20134;-74
2022/09/13 05:34:14;;;;;;;4.72;2.03;;;17.70;99.90;;;;;;7391227;19;20173;-75
2022/09/13 05:36:40;;;;;;;4.40;2.00;;;17.70;99.90;;;;;;7387533;19;20142;-75
2022/09/13 05:39:10;;;;;;;5.40;2.72;;;17.70;99.90;;;;;;7387677;19;20159;-76
2022/09/13 05:41:36;;;;;;;3.28;2.10;;;17.70;99.90;;;;;;7390204;19;20145;-75
2022/09/13 05:44:02;;;;;;;5.60;2.25;;;17.80;99.90;;;;;;7390143;19;20138;-74
2022/09/13 05:46:28;;;;;;;4.05;2.33;;;17.70;99.90;;;;;;7387096;19;20599;-77
2022/09/13 05:48:57;;;;;;;3.80;2.20;;;17.70;99.90;;;;;;7387498;19;20146;-75
2022/09/13 05:51:23;;;;;;;3.28;2.25;;;17.80;99.90;;;;;;7389015;19;20162;-75
2022/09/13 05:53:52;;;;;;;3.45;1.90;;;17.80;99.90;;;;;;7387338;19;20269;-75
2022/09/13 05:56:24;;;;;;;5.03;1.95;;;17.80;99.90;;;;;;7391183;19;20142;-76
2022/09/13 05:58:51;;;;;;;7.15;2.58;;;17.90;99.90;;;;;;7389284;19;20177;-75
2022/09/13 06:01:19;;;;;;;3.70;2.58;;;17.80;99.90;;;;;;7390697;19;20138;-74
2022/09/13 06:03:50;;;;;;;3.42;2.10;;;17.80;99.90;;;;;;7388623;19;20151;-75
2022/09/13 06:06:16;;;;;;;4.45;2.20;;;17.90;99.90;;;;;;7390744;19;20142;-75
2022/09/13 06:08:43;;;;;;;3.10;2.05;;;18.00;99.90;;;;;;7389602;19;20146;-74
2022/09/13 06:11:11;;;;;;;4.15;2.22;;;17.90;99.90;;;;;;7390337;19;20142;-74
2022/09/13 06:13:42;;;;;;;4.32;2.10;;;17.90;99.90;;;;;;7390026;19;20138;-77
2022/09/13 06:16:10;;;;;;;2.80;2.03;;;17.80;99.90;;;;;;7390001;19;20142;-75
2022/09/13 06:18:36;;;;;;;3.00;1.77;;;17.90;99.90;;;;;;7388745;19;20199;-75
2022/09/13 06:21:04;;;;;;;5.15;2.38;;;17.90;99.90;;;;;;7390448;19;20155;-76
2022/09/13 06:23:30;;;;;;;6.85;2.33;;;17.90;99.90;;;;;;7389431;19;20150;-75
2022/09/13 06:26:04;;;;;;;5.38;2.30;;;18.10;99.90;;;;;;7388730;19;20150;-76
2022/09/13 06:28:30;;;;;;;4.65;1.88;;;18.00;99.90;;;;;;7389845;19;20148;-74
2022/09/13 06:31:07;;;;;;;4.53;2.10;;;18.00;99.90;;;;;;7388621;19;20169;-75
2022/09/13 06:33:34;;;;;;;3.63;2.08;;;18.00;99.90;;;;;;7388017;19;20148;-76
2022/09/13 06:36:06;;;;;;;3.42;2.35;;;18.00;99.90;;;;;;7389291;19;20139;-75
2022/09/13 06:38:32;;;;;;;2.47;2.05;;;18.00;99.90;;;;;;7392357;19;20456;-76
2022/09/13 06:41:09;;;;;;;3.65;2.08;;;18.20;99.90;;;;;;7398174;19;20198;-75
2022/09/13 06:43:36;;;;;;;4.97;2.60;;;18.20;99.90;;;;;;7395425;19;20145;-75
2022/09/13 06:46:07;;;;;;;4.07;2.40;;;18.10;99.90;;;;;;7396805;19;20168;-75
2022/09/13 06:48:35;;;;;;;2.22;1.83;;;18.10;99.90;;;;;;7396097;19;20143;-75
2022/09/13 06:51:04;;;;;;;2.80;1.98;;;18.20;99.90;;;;;;7397712;19;20502;-74
2022/09/13 06:53:30;;;;;;;3.22;2.15;;;18.10;99.90;;;;;;7396869;19;20180;-76
2022/09/13 06:56:09;;;;;;;6.05;2.00;;;18.20;99.90;;;;;;7398292;19;20142;-75
2022/09/13 06:58:36;;;;;;;4.18;1.92;;;18.20;99.90;;;;;;7394653;19;20151;-74
2022/09/13 07:01:10;;;;;;;3.72;2.38;;;18.10;99.90;;;;;;7393934;19;20150;-74
2022/09/13 07:03:38;;;;;;;4.90;2.42;;;18.00;99.90;;;;;;7399986;19;20687;-75
2022/09/13 07:06:14;;;;;;;2.47;2.08;;;18.20;99.90;;;;;;7400672;19;20142;-74
2022/09/13 07:08:42;;;;;;;4.10;2.05;;;18.30;99.90;;;;;;7396056;19;20161;-75
2022/09/13 07:11:09;;;;;;;4.07;2.55;;;18.30;99.90;;;;;;7397852;19;20153;-74
2022/09/13 07:13:36;;;;;;;3.00;2.10;;;18.40;99.90;;;;;;7399196;19;20495;-75
2022/09/13 07:16:09;;;;;;;5.60;2.25;;;18.50;99.90;;;;;;7398121;19;20139;-74
2022/09/13 07:18:35;;;;;;;6.90;2.20;;;18.50;99.90;;;;;;7399541;19;20165;-73
2022/09/13 07:21:07;;;;;;;2.13;1.83;;;18.50;99.90;;;;;;7400914;19;20150;-75
2022/09/13 07:23:34;;;;;;;3.10;2.00;;;18.60;99.90;;;;;;7397952;19;20138;-74
2022/09/13 07:26:03;;;;;;;4.70;1.90;;;18.70;99.90;;;;;;7397330;19;20160;-75
2022/09/13 07:28:34;;;;;;;2.78;2.08;;;18.60;99.90;;;;;;7397664;19;20131;-74
2022/09/13 07:31:09;;;;;;;2.67;1.90;;;18.70;99.90;;;;;;7396899;19;20266;-74
2022/09/13 07:33:36;;;;;;;2.45;1.70;;;18.60;99.90;;;;;;7399319;19;20122;-75
2022/09/13 07:36:05;;;;;;;5.28;2.25;;;18.60;99.90;;;;;;7399492;19;20145;-75
2022/09/13 07:38:35;;;;;;;4.75;2.00;;;18.70;99.90;;;;;;7396936;19;20911;-76
2022/09/13 07:41:05;;;;;;;3.30;1.83;;;18.90;99.90;;;;;;7396157;19;20650;-75
2022/09/13 07:43:33;;;;;;;4.57;2.20;;;18.90;99.90;;;;;;7394003;19;20154;-76
2022/09/13 07:46:03;;;;;;;2.65;2.00;;;19.00;99.90;;;;;;7394615;19;20490;-75
2022/09/13 07:48:32;;;;;;;4.22;1.90;;;19.00;99.90;;;;;;7393156;19;20592;-75
2022/09/13 07:51:07;;;;;;;2.85;1.92;;;19.00;99.90;;;;;;7394857;19;20127;-75
2022/09/13 07:53:35;;;;;;;3.20;1.90;;;19.10;99.90;;;;;;7394670;19;20141;-74
2022/09/13 07:56:03;;;;;;;2.95;2.00;;;19.10;99.90;;;;;;7395535;19;20131;-75
2022/09/13 07:58:29;;;;;;;3.47;2.20;;;19.20;99.90;;;;;;7395184;19;20135;-76
2022/09/13 08:01:19;;;;;;;4.57;2.30;;;19.30;99.90;;;;;;7392995;19;20135;-75
2022/09/13 08:03:53;;;;;;;5.15;2.28;;;19.40;99.90;;;;;;7394794;19;20153;-76
2022/09/13 08:06:20;;;;;;;2.83;2.00;;;19.50;99.90;;;;;;7395481;19;20130;-76
2022/09/13 08:08:47;;;;;;;4.20;2.33;;;19.60;99.90;;;;;;7394487;19;20134;-77
2022/09/13 08:11:18;;;;;;;3.20;2.15;;;19.90;99.90;;;;;;7396176;19;20615;-77
2022/09/13 08:13:48;;;;;;;2.63;2.28;;;20.00;99.90;;;;;;7393099;19;20146;-76
2022/09/13 08:16:15;;;;;;;3.65;1.95;;;20.10;99.90;;;;;;7397816;19;20214;-76
2022/09/13 08:18:55;;;;;;;3.53;2.05;;;20.10;99.90;;;;;;7394282;19;20139;-75
2022/09/13 08:21:22;;;;;;;3.67;1.92;;;20.20;99.90;;;;;;7395391;19;20131;-76
2022/09/13 08:23:47;;;;;;;3.70;2.15;;;20.40;99.90;;;;;;7391182;19;20813;-76
2022/09/13 08:26:15;;;;;;;6.32;2.08;;;20.40;99.90;;;;;;7393587;19;20243;-76
2022/09/13 08:28:41;;;;;;;2.22;2.00;;;20.40;99.90;;;;;;7390595;19;20143;-76
2022/09/13 08:31:14;;;;;;;3.13;2.10;;;20.50;99.90;;;;;;7393398;19;20492;-77
2022/09/13 08:33:44;;;;;;;3.78;2.45;;;20.70;99.90;;;;;;7393375;19;20143;-76
2022/09/13 08:36:10;;;;;;;3.90;1.80;;;20.80;99.90;;;;;;7392268;19;20150;-76
2022/09/13 08:38:36;;;;;;;4.63;2.13;;;21.00;99.90;;;;;;7391385;19;20543;-76
2022/09/13 08:41:19;;;;;;;3.70;1.98;;;21.00;99.90;;;;;;7392423;19;20163;-76
2022/09/13 08:44:02;;;;;;;2.75;1.83;;;21.00;99.90;;;;;;7393137;19;20138;-76
2022/09/13 08:46:41;;;;;;;1.70;1.60;;;21.10;99.90;;;;;;7392711;19;20165;-75
2022/09/13 08:49:20;;;;;;;4.80;2.10;;;21.20;99.90;;;;;;7393393;19;20138;-75
2022/09/13 08:51:56;;;;;;;1.98;1.70;;;21.20;99.90;;;;;;7391859;19;20150;-76
2022/09/13 08:54:22;;;;;;;4.32;2.15;;;21.30;99.90;;;;;;7391957;19;20221;-74
2022/09/13 08:57:06;;;;;;;3.60;1.95;;;21.40;99.90;;;;;;7390248;19;20187;-77
2022/09/13 09:00:02;;;;;;;3.92;1.75;;;21.40;99.90;;;;;;7393819;19;20138;-76
2022/09/13 09:03:06;;;;;;;6.10;1.98;;;21.50;99.90;;;;;;7393499;19;20139;-75
2022/09/13 09:05:43;;;;;;;4.35;2.08;;;21.60;99.90;;;;;;7387163;19;20142;-76
2022/09/13 09:08:23;;;;;;;5.15;2.67;;;21.60;99.90;;;;;;7388993;19;20612;-76
2022/09/13 09:10:52;;;;;;;2.38;1.90;;;21.60;99.90;;;;;;7390776;19;20146;-77
2022/09/13 09:13:32;;;;;;;3.08;1.70;;;21.70;99.90;;;;;;7393201;19;20182;-77
2022/09/13 09:16:06;;;;;;;5.40;1.90;;;21.80;99.90;;;;;;7392475;19;20624;-76
2022/09/13 09:18:42;;;;;;;5.07;1.88;;;22.10;99.90;;;;;;7392235;19;20922;-76
2022/09/13 09:21:15;;;;;;;3.65;2.03;;;22.30;99.90;;;;;;7394072;19;20141;-76
2022/09/13 09:23:54;;;;;;;2.10;1.55;;;22.20;99.90;;;;;;7394076;19;20138;-80
2022/09/13 09:26:25;;;;;;;4.38;2.05;;;22.30;99.90;;;;;;7391868;19;20522;-80
2022/09/13 09:28:54;;;;;;;3.45;1.98;;;22.40;99.90;;;;;;7389569;19;20142;-77
2022/09/13 09:31:31;;;;;;;3.47;1.70;;;22.40;99.90;;;;;;7391236;19;20157;-77
2022/09/13 09:34:21;;;;;;;3.20;1.60;;;22.50;99.90;;;;;;7390171;19;20138;-77
2022/09/13 09:37:13;;;;;;;2.47;1.60;;;22.70;99.90;;;;;;7391444;19;20155;-76
2022/09/13 09:39:39;;;;;;;3.65;1.63;;;22.80;99.90;;;;;;7390500;19;20138;-77
2022/09/13 09:42:17;;;;;;;4.10;2.42;;;22.90;99.90;;;;;;7391381;19;20162;-76
2022/09/13 09:44:48;;;;;;;5.20;2.13;;;22.90;99.90;;;;;;7390028;19;20138;-77
2022/09/13 09:47:19;;;;;;;5.05;1.80;;;23.00;99.90;;;;;;7392133;19;20148;-76
2022/09/13 09:50:11;;;;;;;2.20;2.00;;;23.10;99.90;;;;;;7393222;19;20134;-77
2022/09/13 09:53:13;;;;;;;2.72;1.20;;;23.20;99.90;;;;;;7392377;19;20812;-76
2022/09/13 09:55:44;;;;;;;3.33;1.85;;;23.40;99.90;;;;;;7391342;19;20165;-76
2022/09/13 09:58:11;;;;;;;5.63;1.38;;;23.50;99.90;;;;;;7392145;19;20607;-76
2022/09/13 10:00:51;;;;;;;4.60;1.88;;;23.50;99.90;;;;;;7393353;19;20167;-75
2022/09/13 10:03:19;;;;;;;5.68;1.50;;;23.50;99.90;;;;;;7392555;19;20138;-76
2022/09/13 10:05:45;;;;;;;3.42;1.58;;;23.40;99.90;;;;;;7392070;19;20141;-75
2022/09/13 10:08:30;;;;;;;1.90;1.58;;;23.50;99.90;;;;;;7394200;19;20137;-77
2022/09/13 10:10:59;;;;;;;1.60;1.40;;;23.40;99.90;;;;;;7392483;19;20138;-75
2022/09/13 10:13:26;;;;;;;2.90;1.70;;;23.50;99.90;;;;;;7390346;19;20583;-75
2022/09/13 10:15:58;;;;;;;2.78;1.55;;;23.50;99.90;;;;;;7391609;19;20480;-76
2022/09/13 10:18:26;;;;;;;2.17;1.25;;;23.50;99.90;;;;;;7388597;19;20141;-76
2022/09/13 10:21:02;;;;;;;2.90;1.77;;;23.50;99.90;;;;;;7388322;19;20591;-75
2022/09/13 10:23:28;;;;;;;3.03;1.23;;;23.50;99.90;;;;;;7389551;19;20150;-75
2022/09/13 10:26:02;;;;;;;5.78;1.60;;;23.60;99.90;;;;;;7387501;19;20182;-76
2022/09/13 10:28:31;;;;;;;3.08;1.25;;;23.60;99.90;;;;;;7391352;19;20181;-76
2022/09/13 10:31:05;;;;;;;4.28;1.60;;;23.80;99.90;;;;;;7389650;19;20142;-76
2022/09/13 10:33:41;;;;;;;5.07;1.48;;;23.80;99.90;;;;;;7388870;19;20161;-75
2022/09/13 10:36:14;;;;;;;3.83;2.05;;;23.90;99.90;;;;;;7389345;19;20176;-76
2022/09/13 10:38:46;;;;;;;3.40;2.17;;;23.90;99.90;;;;;;7389742;19;20138;-78
2022/09/13 10:41:23;;;;;;;2.05;1.17;;;24.00;99.90;;;;;;7389621;19;20218;-76
2022/09/13 10:43:57;;;;;;;3.13;1.60;;;24.20;99.90;;;;;;7390758;19;20146;-75
2022/09/13 10:46:24;;;;;;;2.80;1.33;;;24.30;99.90;;;;;;7389967;19;20540;-74
2022/09/13 10:48:56;;;;;;;3.53;1.50;;;24.50;99.90;;;;;;7390281;19;20138;-77
2022/09/13 10:51:30;;;;;;;3.90;1.55;;;24.60;99.90;;;;;;7392032;19;20139;-76
2022/09/13 10:54:19;;;;;;;3.63;1.65;;;24.50;99.90;;;;;;7390815;19;20154;-75
2022/09/13 10:56:46;;;;;;;2.95;1.67;;;24.60;99.90;;;;;;7387654;19;20226;-76
2022/09/13 10:59:21;;;;;;;1.23;1.13;;;24.50;99.90;;;;;;7391302;19;20154;-76
2022/09/13 11:02:05;;;;;;;2.55;1.70;;;24.60;99.90;;;;;;7387862;19;20145;-76
2022/09/13 11:04:46;;;;;;;1.52;1.15;;;24.70;99.90;;;;;;7388260;19;20143;-77
2022/09/13 11:07:54;;;;;;;1.85;1.40;;;24.80;99.90;;;;;;7390144;19;20153;-76
2022/09/13 11:10:42;;;;;;;4.47;2.25;;;24.90;99.90;;;;;;7387773;19;20191;-76
2022/09/13 11:13:29;;;;;;;1.92;1.58;;;25.00;99.90;;;;;;7388894;19;20275;-77
2022/09/13 11:16:13;;;;;;;2.38;1.52;;;25.10;99.90;;;;;;7387215;19;20213;-76
2022/09/13 11:19:09;;;;;;;19.38;15.25;;;25.00;99.90;;;;;;7388007;19;20597;-77
2022/09/13 11:21:55;;;;;;;20.58;15.60;;;25.00;99.90;;;;;;7388274;19;20193;-76
2022/09/13 11:25:00;;;;;;;4.32;3.10;;;25.00;99.90;;;;;;7389683;19;20735;-76
2022/09/13 11:27:55;;;;;;;1.88;1.27;;;24.90;99.90;;;;;;7393032;19;20758;-78
2022/09/13 11:30:24;;;;;;;3.03;1.92;;;25.00;99.90;;;;;;7393843;19;20143;-76
2022/09/13 11:33:14;;;;;;;2.28;1.30;;;25.00;99.90;;;;;;7395590;19;20234;-75
2022/09/13 11:36:10;;;;;;;2.50;1.10;;;25.20;99.90;;;;;;7395833;19;20226;-76
2022/09/13 11:38:47;;;;;;;2.03;1.42;;;25.30;99.90;;;;;;7395840;19;20142;-76
2022/09/13 11:41:41;;;;;;;2.58;1.25;;;25.40;99.90;;;;;;7397189;19;20134;-76
2022/09/13 11:44:12;;;;;;;9.30;1.20;;;25.40;99.90;;;;;;7395632;19;20138;-75
2022/09/13 11:46:55;;;;;;;2.08;1.40;;;25.30;99.90;;;;;;7396011;19;20135;-76
2022/09/13 11:49:46;;;;;;;3.47;1.55;;;25.40;99.90;;;;;;7396045;19;20171;-76
2022/09/13 11:52:49;;;;;;;2.08;1.58;;;25.50;99.90;;;;;;7392878;19;20139;-76
2022/09/13 11:55:41;;;;;;;4.90;1.60;;;25.60;99.90;;;;;;7394576;19;20610;-76
2022/09/13 11:58:17;;;;;;;2.83;1.27;;;25.60;99.90;;;;;;7393561;19;20158;-75
2022/09/13 12:00:49;;;;;;;1.20;1.10;;;25.60;99.60;;;;;;7394308;19;20156;-77
2022/09/13 12:03:39;;;;;;;1.50;1.15;;;25.60;99.50;;;;;;7394847;19;20591;-77
2022/09/13 12:06:29;;;;;;;1.83;1.33;;;25.70;98.60;;;;;;7396259;19;20142;-76
2022/09/13 12:09:15;;;;;;;3.25;1.70;;;25.70;99.00;;;;;;7393723;19;20157;-76
2022/09/13 12:12:10;;;;;;;1.27;1.10;;;25.70;98.80;;;;;;7396822;19;20221;-76
2022/09/13 12:14:51;;;;;;;1.65;1.17;;;25.70;98.90;;;;;;7395038;19;20162;-75
2022/09/13 12:17:28;;;;;;;3.08;1.40;;;25.80;98.50;;;;;;7393255;19;20214;-77
2022/09/13 12:19:57;;;;;;;1.65;1.35;;;25.90;97.30;;;;;;7393560;19;20517;-77
2022/09/13 12:22:25;;;;;;;3.58;1.30;;;25.90;97.50;;;;;;7392978;19;20142;-79
2022/09/13 12:24:58;;;;;;;3.78;1.73;;;25.90;98.00;;;;;;7392606;19;20146;-77
2022/09/13 12:27:45;;;;;;;2.28;1.05;;;25.90;97.50;;;;;;7394699;19;20150;-76
2022/09/13 12:30:39;;;;;;;1.88;0.90;;;26.10;96.80;;;;;;7394809;19;20145;-77
2022/09/13 12:33:05;;;;;;;1.20;1.00;;;26.30;95.50;;;;;;7390000;19;20259;-77
2022/09/13 12:36:07;;;;;;;1.83;1.65;;;26.10;96.00;;;;;;7394127;19;20137;-76
2022/09/13 12:38:56;;;;;;;3.28;0.80;;;26.10;96.40;;;;;;7392609;19;20145;-75
2022/09/13 12:41:55;;;;;;;1.92;1.33;;;26.20;96.30;;;;;;7396471;19;20206;-78
2022/09/13 12:44:36;;;;;;;1.63;1.00;;;26.30;95.80;;;;;;7388906;19;20152;-75
2022/09/13 12:47:02;;;;;;;1.75;0.95;;;26.40;96.10;;;;;;7392602;19;20160;-77
2022/09/13 12:49:40;;;;;;;0.77;0.70;;;26.50;95.80;;;;;;7393534;19;20151;-77
2022/09/13 12:52:30;;;;;;;1.13;1.00;;;26.50;96.00;;;;;;7392925;19;20135;-75
2022/09/13 12:55:30;;;;;;;1.30;1.00;;;26.60;95.40;;;;;;7396063;19;20147;-75
2022/09/13 12:58:02;;;;;;;1.98;1.10;;;26.70;94.60;;;;;;7392118;19;20138;-77
2022/09/13 13:01:01;;;;;;;1.45;1.00;;;26.60;94.80;;;;;;7392001;19;20500;-76
2022/09/13 13:03:33;;;;;;;1.00;1.00;;;26.50;94.30;;;;;;7387855;19;20169;-77
2022/09/13 13:06:34;;;;;;;2.13;1.92;;;26.40;95.00;;;;;;7391898;19;20145;-76
2022/09/13 13:09:04;;;;;;;1.13;0.90;;;26.50;94.90;;;;;;7387256;19;20164;-77
2022/09/13 13:11:44;;;;;;;1.02;0.70;;;26.50;93.20;;;;;;7394346;19;20244;-76
2022/09/13 13:14:38;;;;;;;1.58;1.30;;;26.60;91.90;;;;;;7393232;19;20149;-75
2022/09/13 13:17:41;;;;;;;1.90;1.33;;;26.60;92.50;;;;;;7392648;19;20179;-75
2022/09/13 13:20:44;;;;;;;3.08;1.00;;;26.60;92.10;;;;;;7390663;19;20157;-76
2022/09/13 13:23:28;;;;;;;1.17;0.90;;;26.80;92.60;;;;;;7392591;19;20145;-76
2022/09/13 13:26:06;;;;;;;1.00;0.77;;;26.70;92.10;;;;;;7392232;19;20888;-76